Time;durP1;ratioP1;P1;durP2;ratioP2;P2;SDS_P1;SDS_P2;PMS_P1;PMS_P2;Temp;Humidity;BMP_temperature;BMP_pressure;BME280_temperature;BME280_humidity;BME280_pressure;Samples;Min_cycle;Max_cycle;Signal;HPM_P1;HPM_P2
2023/04/27 00:02:12;;;;;;;7.72;2.80;;;3.70;99.90;;;;;;5113027;28;20038;-71
2023/04/27 00:04:38;;;;;;;5.80;2.72;;;3.70;99.90;;;;;;5088277;28;20032;-71
2023/04/27 00:07:04;;;;;;;6.47;2.60;;;3.70;99.90;;;;;;5103034;28;20048;-71
2023/04/27 00:09:29;;;;;;;5.90;2.75;;;3.70;99.90;;;;;;5111515;28;20044;-71
2023/04/27 00:11:55;;;;;;;4.82;2.55;;;3.60;99.90;;;;;;5124965;27;20075;-71
2023/04/27 00:14:20;;;;;;;4.15;2.20;;;3.60;99.90;;;;;;5092331;28;20050;-71
2023/04/27 00:16:46;;;;;;;5.20;2.45;;;3.50;99.90;;;;;;5114778;28;20449;-71
2023/04/27 00:19:12;;;;;;;6.10;2.55;;;3.40;99.90;;;;;;5089589;28;20471;-71
2023/04/27 00:21:38;;;;;;;6.53;3.58;;;3.40;99.90;;;;;;5095293;28;20085;-71
2023/04/27 00:24:04;;;;;;;7.47;3.10;;;3.30;99.90;;;;;;5097459;28;20096;-71
2023/04/27 00:26:30;;;;;;;6.70;2.92;;;3.30;99.90;;;;;;5097577;28;20035;-71
2023/04/27 00:28:55;;;;;;;6.07;2.47;;;3.20;99.90;;;;;;5113925;28;20043;-72
2023/04/27 00:31:21;;;;;;;7.78;3.35;;;3.20;99.90;;;;;;5112548;28;20028;-71
2023/04/27 00:33:46;;;;;;;5.50;2.80;;;3.30;99.90;;;;;;5114660;28;20032;-71
2023/04/27 00:36:12;;;;;;;7.35;3.08;;;3.30;99.90;;;;;;5096322;28;20530;-71
2023/04/27 00:38:38;;;;;;;5.85;2.58;;;3.40;99.90;;;;;;5097536;28;20525;-71
2023/04/27 00:41:05;;;;;;;5.50;3.00;;;3.40;99.90;;;;;;5109870;28;20044;-71
2023/04/27 00:43:32;;;;;;;6.15;3.05;;;3.40;99.90;;;;;;5093834;28;20484;-71
2023/04/27 00:45:58;;;;;;;5.90;3.30;;;3.40;99.90;;;;;;5093769;28;20040;-71
2023/04/27 00:48:25;;;;;;;6.53;3.10;;;3.50;99.90;;;;;;5093603;28;20048;-71
2023/04/27 00:50:51;;;;;;;8.18;3.67;;;3.50;99.90;;;;;;5093123;28;20067;-71
2023/04/27 00:53:17;;;;;;;7.05;3.80;;;3.50;99.90;;;;;;5076712;28;20047;-71
2023/04/27 00:55:43;;;;;;;8.90;4.40;;;3.50;99.90;;;;;;5103561;28;20134;-71
2023/04/27 00:58:09;;;;;;;8.88;4.03;;;3.40;99.90;;;;;;5130908;27;20123;-71
2023/04/27 01:00:38;;;;;;;7.97;3.83;;;3.30;99.90;;;;;;5100306;28;20040;-70
2023/04/27 01:03:05;;;;;;;7.30;3.90;;;3.30;99.90;;;;;;5076532;28;20047;-70
2023/04/27 01:05:31;;;;;;;8.52;4.03;;;3.30;99.90;;;;;;5104276;28;20437;-70
2023/04/27 01:07:57;;;;;;;8.50;3.78;;;3.30;99.90;;;;;;5113591;28;20045;-70
2023/04/27 01:10:22;;;;;;;7.68;3.92;;;3.40;99.90;;;;;;5111887;28;20122;-70
2023/04/27 01:12:48;;;;;;;7.18;3.97;;;3.40;99.90;;;;;;5096183;28;20081;-70
2023/04/27 01:15:13;;;;;;;7.70;3.72;;;3.40;99.90;;;;;;5095181;28;20039;-70
2023/04/27 01:17:39;;;;;;;7.43;3.42;;;3.50;99.90;;;;;;5113530;28;20100;-70
2023/04/27 01:20:09;;;;;;;7.57;3.72;;;3.50;99.90;;;;;;5105064;28;20067;-70
2023/04/27 01:22:35;;;;;;;7.20;3.60;;;3.50;99.90;;;;;;5095803;28;20438;-70
2023/04/27 01:25:01;;;;;;;7.68;3.90;;;3.50;99.90;;;;;;5092813;28;20036;-70
2023/04/27 01:27:26;;;;;;;7.82;4.20;;;3.50;99.90;;;;;;5092665;28;20036;-70
2023/04/27 01:29:52;;;;;;;8.57;3.95;;;3.50;99.90;;;;;;5101701;28;20445;-70
2023/04/27 01:32:18;;;;;;;7.90;3.80;;;3.50;99.90;;;;;;5113151;28;20050;-70
2023/04/27 01:34:43;;;;;;;9.27;4.03;;;3.50;99.90;;;;;;5091255;28;20043;-70
2023/04/27 01:37:09;;;;;;;8.27;4.20;;;3.50;99.90;;;;;;5092731;28;20032;-70
2023/04/27 01:39:34;;;;;;;8.85;4.47;;;3.50;99.90;;;;;;5098883;28;20031;-70
2023/04/27 01:42:02;;;;;;;9.63;4.13;;;3.50;99.90;;;;;;5111940;28;20044;-70
2023/04/27 01:44:28;;;;;;;7.97;4.28;;;3.50;99.90;;;;;;5095049;28;20058;-71
2023/04/27 01:46:53;;;;;;;7.00;3.67;;;3.50;99.90;;;;;;5113244;28;20484;-71
2023/04/27 01:49:19;;;;;;;7.55;4.10;;;3.50;99.90;;;;;;5094926;28;20039;-71
2023/04/27 01:51:45;;;;;;;10.60;4.25;;;3.50;99.90;;;;;;5090289;28;20032;-71
2023/04/27 01:54:10;;;;;;;8.82;4.38;;;3.50;99.90;;;;;;5092797;28;20123;-71
2023/04/27 01:56:36;;;;;;;8.93;3.97;;;3.50;99.90;;;;;;5075463;28;20048;-71
2023/04/27 01:59:01;;;;;;;6.72;4.03;;;3.40;99.90;;;;;;5076461;28;20040;-71
2023/04/27 02:01:27;;;;;;;9.38;4.32;;;3.40;99.90;;;;;;5112998;28;20131;-71
2023/04/27 02:03:53;;;;;;;7.78;4.18;;;3.40;99.90;;;;;;5095663;28;20040;-71
2023/04/27 02:06:18;;;;;;;8.70;4.47;;;3.40;99.90;;;;;;5077330;28;20453;-70
2023/04/27 02:08:44;;;;;;;9.52;4.38;;;3.40;99.90;;;;;;5109445;28;20043;-71
2023/04/27 02:11:09;;;;;;;9.02;4.65;;;3.40;99.90;;;;;;5084592;28;20488;-71
2023/04/27 02:13:35;;;;;;;9.77;4.30;;;3.30;99.90;;;;;;5095888;28;20467;-71
2023/04/27 02:16:03;;;;;;;8.68;4.40;;;3.30;99.90;;;;;;5110626;28;20084;-71
2023/04/27 02:18:28;;;;;;;8.63;4.18;;;3.30;99.90;;;;;;5112309;28;20043;-71
2023/04/27 02:20:54;;;;;;;8.48;4.07;;;3.30;99.90;;;;;;5093534;28;20188;-71
2023/04/27 02:23:19;;;;;;;8.40;3.92;;;3.30;99.90;;;;;;5106667;28;20035;-71
2023/04/27 02:25:45;;;;;;;7.13;3.75;;;3.30;99.90;;;;;;5079112;28;20042;-71
2023/04/27 02:28:14;;;;;;;8.00;4.13;;;3.30;99.90;;;;;;5100253;28;20040;-71
2023/04/27 02:30:39;;;;;;;9.23;4.57;;;3.30;99.90;;;;;;5094548;28;20104;-71
2023/04/27 02:33:05;;;;;;;8.25;3.92;;;3.20;99.90;;;;;;5088729;28;20067;-71
2023/04/27 02:35:32;;;;;;;6.93;4.10;;;3.20;99.90;;;;;;5095068;28;20396;-71
2023/04/27 02:37:57;;;;;;;9.15;4.13;;;3.20;99.90;;;;;;5095997;28;20036;-71
2023/04/27 02:40:23;;;;;;;8.20;4.38;;;3.20;99.90;;;;;;5089059;28;20044;-71
2023/04/27 02:42:49;;;;;;;6.72;3.63;;;3.20;99.90;;;;;;5100019;28;20036;-71
2023/04/27 02:45:15;;;;;;;7.03;3.95;;;3.10;99.90;;;;;;5093192;28;20093;-71
2023/04/27 02:47:41;;;;;;;7.55;4.00;;;3.10;99.90;;;;;;5112034;28;20476;-71
2023/04/27 02:50:07;;;;;;;8.93;4.05;;;3.10;99.90;;;;;;5123526;28;20419;-71
2023/04/27 02:52:32;;;;;;;6.82;3.42;;;3.10;99.90;;;;;;5084402;28;20081;-71
2023/04/27 02:54:58;;;;;;;7.43;3.40;;;3.10;99.90;;;;;;5104288;28;20032;-71
2023/04/27 02:57:24;;;;;;;6.10;3.30;;;3.10;99.90;;;;;;5109225;28;20051;-71
2023/04/27 02:59:49;;;;;;;6.78;3.58;;;3.10;99.90;;;;;;5091014;28;20040;-71
2023/04/27 03:02:15;;;;;;;6.93;3.38;;;3.00;99.90;;;;;;5098392;28;20039;-71
2023/04/27 03:04:42;;;;;;;9.38;3.75;;;3.00;99.90;;;;;;5105876;28;21455;-71
2023/04/27 03:07:07;;;;;;;6.97;3.45;;;2.90;99.90;;;;;;5094025;28;20492;-71
2023/04/27 03:09:33;;;;;;;7.28;3.65;;;3.00;99.90;;;;;;5108819;28;20050;-71
2023/04/27 03:11:58;;;;;;;7.65;3.65;;;2.90;99.90;;;;;;5109149;28;20032;-71
2023/04/27 03:14:24;;;;;;;8.85;4.13;;;2.90;99.90;;;;;;5083063;28;20479;-71
2023/04/27 03:16:50;;;;;;;8.13;3.28;;;2.90;99.90;;;;;;5110548;28;20058;-71
2023/04/27 03:19:15;;;;;;;8.43;3.70;;;2.90;99.90;;;;;;5088658;28;20031;-71
2023/04/27 03:21:41;;;;;;;7.72;3.95;;;2.90;99.90;;;;;;5084247;28;20147;-71
2023/04/27 03:24:06;;;;;;;8.98;4.10;;;2.80;99.90;;;;;;5098910;28;20051;-71
2023/04/27 03:26:32;;;;;;;8.52;4.28;;;2.70;99.90;;;;;;5083647;28;20035;-71
2023/04/27 03:28:57;;;;;;;8.10;4.25;;;2.70;99.90;;;;;;5110860;28;20042;-71
2023/04/27 03:31:23;;;;;;;7.78;4.47;;;2.70;99.90;;;;;;5106952;28;20089;-71
2023/04/27 03:33:49;;;;;;;8.30;4.40;;;2.70;99.90;;;;;;5108672;28;20483;-71
2023/04/27 03:36:14;;;;;;;9.00;6.40;;;2.70;99.90;;;;;;5100641;28;20055;-71
2023/04/27 03:38:40;;;;;;;8.80;7.68;;;2.60;99.90;;;;;;5104826;28;20040;-71
2023/04/27 03:41:05;;;;;;;7.78;4.82;;;2.70;99.90;;;;;;5099636;27;20138;-71
2023/04/27 03:43:31;;;;;;;5.88;3.17;;;2.70;99.90;;;;;;5112417;28;20039;-71
2023/04/27 03:45:56;;;;;;;6.45;3.33;;;2.70;99.90;;;;;;5112089;28;20118;-71
2023/04/27 03:48:22;;;;;;;8.88;3.38;;;2.70;99.90;;;;;;5114294;28;20047;-71
2023/04/27 03:50:48;;;;;;;7.45;3.38;;;2.60;99.90;;;;;;5111909;28;20051;-71
2023/04/27 03:53:14;;;;;;;8.30;3.70;;;2.60;99.90;;;;;;5110831;28;20082;-71
2023/04/27 03:55:41;;;;;;;7.75;4.07;;;2.60;99.90;;;;;;5103246;28;20075;-71
2023/04/27 03:58:09;;;;;;;7.55;3.65;;;2.60;99.90;;;;;;5097601;28;20449;-71
2023/04/27 04:00:35;;;;;;;8.30;3.80;;;2.60;99.90;;;;;;5111725;28;20126;-71
2023/04/27 04:03:01;;;;;;;7.70;3.60;;;2.60;99.90;;;;;;5097325;28;20051;-71
2023/04/27 04:05:26;;;;;;;9.15;3.90;;;2.60;99.90;;;;;;5110457;28;20047;-71
2023/04/27 04:07:52;;;;;;;6.95;3.20;;;2.60;99.90;;;;;;5097968;28;20035;-71
2023/04/27 04:10:18;;;;;;;7.40;3.25;;;2.60;99.90;;;;;;5096053;28;20032;-71
2023/04/27 04:12:43;;;;;;;7.03;3.38;;;2.50;99.90;;;;;;5114200;28;20043;-71
2023/04/27 04:15:10;;;;;;;8.07;3.50;;;2.50;99.90;;;;;;5107915;28;20032;-71
2023/04/27 04:17:35;;;;;;;7.32;3.03;;;2.50;99.90;;;;;;5094276;28;20503;-71
2023/04/27 04:20:01;;;;;;;5.88;2.60;;;2.50;99.90;;;;;;5097951;28;20039;-71
2023/04/27 04:22:26;;;;;;;4.75;2.40;;;2.50;99.90;;;;;;5122033;27;20040;-71
2023/04/27 04:24:52;;;;;;;6.50;2.60;;;2.50;99.90;;;;;;5094931;28;20059;-71
2023/04/27 04:27:18;;;;;;;6.60;3.00;;;2.50;99.90;;;;;;5099441;28;20029;-71
2023/04/27 04:29:43;;;;;;;6.82;2.80;;;2.40;99.90;;;;;;5109423;28;20036;-71
2023/04/27 04:32:11;;;;;;;7.32;2.90;;;2.40;99.90;;;;;;5096140;28;20494;-71
2023/04/27 04:34:36;;;;;;;6.78;3.20;;;2.40;99.90;;;;;;5106562;28;20118;-71
2023/04/27 04:37:03;;;;;;;6.18;3.15;;;2.40;99.90;;;;;;5096475;28;20067;-71
2023/04/27 04:39:32;;;;;;;5.68;2.70;;;2.40;99.90;;;;;;5093989;28;20404;-71
2023/04/27 04:41:58;;;;;;;6.57;3.22;;;2.40;99.90;;;;;;5090628;28;20039;-71
2023/04/27 04:44:24;;;;;;;8.02;3.55;;;2.30;99.90;;;;;;5092858;28;20408;-71
2023/04/27 04:46:50;;;;;;;8.52;3.15;;;2.30;99.90;;;;;;5103236;28;20039;-71
2023/04/27 04:49:15;;;;;;;6.25;3.13;;;2.40;99.90;;;;;;5112324;28;20035;-71
2023/04/27 04:51:42;;;;;;;8.88;3.40;;;2.30;99.90;;;;;;5089329;28;20044;-71
2023/04/27 04:54:08;;;;;;;7.68;3.80;;;2.30;99.90;;;;;;5109654;28;20043;-71
2023/04/27 04:56:34;;;;;;;6.90;3.33;;;2.30;99.90;;;;;;5113626;28;20082;-71
2023/04/27 04:59:00;;;;;;;7.82;3.72;;;2.30;99.90;;;;;;5109837;27;20035;-71
2023/04/27 05:01:26;;;;;;;7.53;3.97;;;2.30;99.90;;;;;;5121579;27;20165;-71
2023/04/27 05:03:51;;;;;;;9.02;4.05;;;2.30;99.90;;;;;;5077399;28;20040;-71
2023/04/27 05:06:17;;;;;;;11.60;4.20;;;2.40;99.90;;;;;;5080047;28;20143;-71
2023/04/27 05:08:43;;;;;;;7.70;4.03;;;2.40;99.90;;;;;;5107409;28;20168;-71
2023/04/27 05:11:09;;;;;;;7.85;3.83;;;2.40;99.90;;;;;;5111295;28;20127;-71
2023/04/27 05:13:35;;;;;;;8.52;3.67;;;2.40;99.90;;;;;;5113599;28;20032;-71
2023/04/27 05:16:05;;;;;;;9.02;4.05;;;2.40;99.90;;;;;;5093576;28;20039;-71
2023/04/27 05:18:31;;;;;;;8.13;4.00;;;2.40;99.90;;;;;;5113850;28;20468;-71
2023/04/27 05:20:56;;;;;;;6.57;3.72;;;2.50;99.90;;;;;;5106122;28;20093;-71
2023/04/27 05:23:22;;;;;;;7.85;4.07;;;2.40;99.90;;;;;;5107660;28;20040;-71
2023/04/27 05:25:47;;;;;;;9.27;4.32;;;2.40;99.90;;;;;;5100006;28;20039;-71
2023/04/27 05:28:13;;;;;;;8.45;3.83;;;2.50;99.90;;;;;;5109134;28;20515;-71
2023/04/27 05:30:39;;;;;;;7.05;3.65;;;2.50;99.90;;;;;;5112603;28;20381;-71
2023/04/27 05:33:05;;;;;;;9.68;3.95;;;2.60;99.90;;;;;;5083982;28;20039;-71
2023/04/27 05:35:32;;;;;;;7.57;4.00;;;2.60;99.90;;;;;;5089731;28;20118;-71
2023/04/27 05:37:57;;;;;;;8.52;3.92;;;2.70;99.90;;;;;;5112049;28;20537;-70
2023/04/27 05:40:23;;;;;;;8.90;4.15;;;2.80;99.90;;;;;;5105093;28;20075;-70
2023/04/27 05:42:48;;;;;;;7.85;4.03;;;3.00;99.90;;;;;;5077111;28;20480;-70
2023/04/27 05:45:14;;;;;;;9.32;3.80;;;3.10;99.90;;;;;;5097378;28;20402;-70
2023/04/27 05:47:40;;;;;;;8.57;4.25;;;3.10;99.90;;;;;;5094330;28;20031;-71
2023/04/27 05:50:07;;;;;;;7.80;4.03;;;3.20;99.90;;;;;;5107455;28;20480;-71
2023/04/27 05:52:32;;;;;;;8.65;4.20;;;3.30;99.90;;;;;;5112778;28;20053;-71
2023/04/27 05:54:58;;;;;;;9.63;4.95;;;3.50;99.90;;;;;;5104567;28;20041;-71
2023/04/27 05:57:24;;;;;;;9.82;4.38;;;3.60;99.90;;;;;;5112596;28;20056;-71
2023/04/27 05:59:50;;;;;;;9.68;4.38;;;3.70;99.90;;;;;;5089030;28;20472;-71
2023/04/27 06:02:17;;;;;;;9.93;4.75;;;3.80;99.90;;;;;;5092039;28;20044;-71
2023/04/27 06:04:43;;;;;;;10.82;4.32;;;3.90;99.90;;;;;;5108159;28;20040;-71
2023/04/27 06:07:13;;;;;;;8.43;4.25;;;4.00;99.90;;;;;;5109945;28;20389;-71
2023/04/27 06:09:40;;;;;;;9.27;4.47;;;4.10;99.90;;;;;;5081751;28;20494;-71
2023/04/27 06:12:06;;;;;;;9.57;4.43;;;4.20;99.90;;;;;;5110387;28;20051;-71
2023/04/27 06:14:34;;;;;;;9.70;4.55;;;4.30;99.90;;;;;;5093770;28;20031;-71
2023/04/27 06:17:00;;;;;;;8.25;4.30;;;4.40;99.90;;;;;;5092804;28;20036;-71
2023/04/27 06:19:26;;;;;;;8.95;4.13;;;4.60;99.90;;;;;;5106890;28;20084;-71
2023/04/27 06:21:55;;;;;;;8.23;3.88;;;4.80;99.90;;;;;;5079179;28;20040;-72
2023/04/27 06:24:21;;;;;;;8.07;4.00;;;5.00;99.90;;;;;;5096188;28;20036;-69
2023/04/27 06:26:48;;;;;;;8.77;4.22;;;5.10;99.90;;;;;;5080324;28;20039;-72
2023/04/27 06:29:14;;;;;;;9.93;4.10;;;5.10;99.90;;;;;;5104064;28;20104;-72
2023/04/27 06:31:40;;;;;;;7.88;3.97;;;5.20;99.90;;;;;;5098652;28;20048;-72
2023/04/27 06:34:05;;;;;;;8.75;4.38;;;5.30;99.90;;;;;;5079579;28;20407;-72
2023/04/27 06:36:31;;;;;;;8.52;3.80;;;5.50;99.90;;;;;;5090090;28;20028;-72
2023/04/27 06:38:57;;;;;;;8.52;3.95;;;5.60;99.90;;;;;;5088634;28;20480;-71
2023/04/27 06:41:24;;;;;;;9.02;3.80;;;5.70;99.90;;;;;;5098574;28;20040;-71
2023/04/27 06:43:49;;;;;;;9.05;3.55;;;5.80;99.90;;;;;;5099780;28;20395;-72
2023/04/27 06:46:15;;;;;;;9.40;3.67;;;6.00;99.90;;;;;;5100036;28;20044;-72
2023/04/27 06:48:41;;;;;;;8.27;3.50;;;6.10;99.90;;;;;;5088910;28;20042;-72
2023/04/27 06:51:06;;;;;;;7.63;3.25;;;6.20;99.90;;;;;;5091779;28;20040;-72
2023/04/27 06:53:32;;;;;;;9.10;4.10;;;6.30;99.90;;;;;;5095393;28;20043;-72
2023/04/27 06:55:58;;;;;;;7.95;3.40;;;6.40;99.90;;;;;;5093179;28;20123;-72
2023/04/27 06:58:24;;;;;;;8.18;3.67;;;6.50;99.90;;;;;;5091892;28;20040;-72
2023/04/27 07:00:50;;;;;;;7.63;3.13;;;6.70;99.90;;;;;;5093420;28;20035;-72
2023/04/27 07:03:16;;;;;;;7.80;2.80;;;6.80;99.90;;;;;;5104249;28;20077;-72
2023/04/27 07:05:41;;;;;;;9.95;3.38;;;6.70;99.90;;;;;;5109528;28;20070;-72
2023/04/27 07:08:07;;;;;;;6.80;2.78;;;6.80;99.90;;;;;;5109285;28;20173;-72
2023/04/27 07:10:34;;;;;;;7.90;2.75;;;6.90;99.90;;;;;;5091837;28;20121;-72
2023/04/27 07:13:00;;;;;;;7.15;3.13;;;7.00;99.90;;;;;;5113770;27;20622;-72
2023/04/27 07:15:25;;;;;;;6.85;3.10;;;7.10;99.90;;;;;;5112267;28;20495;-72
2023/04/27 07:17:54;;;;;;;7.05;2.95;;;7.10;99.90;;;;;;5113702;28;20039;-72
2023/04/27 07:20:20;;;;;;;6.90;2.53;;;7.30;99.90;;;;;;5108369;28;20039;-72
2023/04/27 07:22:46;;;;;;;6.72;2.60;;;7.30;99.90;;;;;;5097983;28;20506;-72
2023/04/27 07:25:12;;;;;;;6.05;2.58;;;7.40;99.90;;;;;;5111060;28;20031;-72
2023/04/27 07:27:38;;;;;;;6.50;2.85;;;7.50;99.90;;;;;;5115329;28;20163;-72
2023/04/27 07:30:07;;;;;;;6.72;3.13;;;7.60;99.90;;;;;;5088166;27;21349;-72
2023/04/27 07:32:33;;;;;;;6.50;2.35;;;7.70;99.90;;;;;;5093529;28;20364;-72
2023/04/27 07:34:58;;;;;;;5.50;2.13;;;7.70;99.90;;;;;;5098523;28;20100;-72
2023/04/27 07:37:24;;;;;;;5.57;2.30;;;7.80;99.90;;;;;;5114856;28;20085;-72
2023/04/27 07:39:53;;;;;;;8.35;2.80;;;7.90;99.90;;;;;;5094017;28;20040;-72
2023/04/27 07:42:21;;;;;;;5.80;2.78;;;8.00;99.90;;;;;;5128098;27;20043;-69
2023/04/27 07:44:49;;;;;;;7.72;3.28;;;8.00;99.90;;;;;;5092789;28;20036;-69
2023/04/27 07:47:15;;;;;;;6.45;2.47;;;8.10;99.90;;;;;;5091074;28;20036;-69
2023/04/27 07:49:40;;;;;;;6.63;2.88;;;8.20;99.90;;;;;;5095309;28;20501;-69
2023/04/27 07:52:07;;;;;;;4.65;2.20;;;8.40;99.90;;;;;;5109312;28;20155;-69
2023/04/27 07:54:33;;;;;;;4.97;2.33;;;8.40;99.90;;;;;;5102564;28;20044;-69
2023/04/27 07:56:58;;;;;;;4.70;2.33;;;8.50;99.90;;;;;;5094427;28;20043;-69
2023/04/27 07:59:28;;;;;;;6.88;2.40;;;8.50;99.90;;;;;;5110900;28;20568;-70
2023/04/27 08:01:53;;;;;;;5.30;2.25;;;8.60;99.90;;;;;;5077858;28;20758;-70
2023/04/27 08:04:19;;;;;;;6.25;2.30;;;8.60;99.90;;;;;;5101139;28;20507;-70
2023/04/27 08:06:45;;;;;;;5.15;2.08;;;8.70;99.90;;;;;;5103010;28;20404;-70
2023/04/27 08:09:11;;;;;;;4.47;2.10;;;8.70;99.90;;;;;;5106657;28;20039;-70
2023/04/27 08:11:36;;;;;;;5.43;2.40;;;8.90;99.90;;;;;;5085268;28;20049;-70
2023/04/27 08:14:02;;;;;;;5.55;2.80;;;8.90;99.90;;;;;;5103072;28;20547;-70
2023/04/27 08:16:27;;;;;;;6.25;2.78;;;8.90;99.90;;;;;;5113285;28;20097;-72
2023/04/27 08:18:53;;;;;;;7.70;2.90;;;9.00;99.90;;;;;;5109240;28;20039;-72
2023/04/27 08:21:18;;;;;;;6.65;2.67;;;9.00;99.90;;;;;;5107070;28;20044;-72
2023/04/27 08:23:44;;;;;;;7.45;2.80;;;9.20;99.90;;;;;;5113832;28;20069;-72
2023/04/27 08:26:14;;;;;;;5.80;2.58;;;9.30;99.90;;;;;;5097005;28;20031;-71
2023/04/27 08:28:39;;;;;;;6.53;2.63;;;9.40;99.90;;;;;;5109946;28;20094;-71
2023/04/27 08:31:05;;;;;;;4.45;2.20;;;9.50;99.90;;;;;;5092434;28;20403;-72
2023/04/27 08:33:30;;;;;;;7.95;2.72;;;9.60;99.90;;;;;;5089560;28;20050;-72
2023/04/27 08:35:56;;;;;;;7.32;2.88;;;9.60;99.90;;;;;;5100574;28;20071;-72
2023/04/27 08:38:21;;;;;;;6.38;2.35;;;9.70;99.90;;;;;;5084428;28;20402;-71
2023/04/27 08:40:47;;;;;;;5.13;2.63;;;9.90;99.90;;;;;;5090076;28;20574;-72
2023/04/27 08:43:12;;;;;;;7.60;3.15;;;9.90;99.90;;;;;;5077578;28;20031;-72
2023/04/27 08:45:46;;;;;;;7.13;3.30;;;9.90;99.90;;;;;;5102746;28;20042;-69
2023/04/27 08:48:12;;;;;;;4.80;2.78;;;9.90;99.90;;;;;;5105456;28;20062;-69
2023/04/27 08:50:42;;;;;;;5.63;2.70;;;10.00;99.90;;;;;;5113591;27;20108;-69
2023/04/27 08:53:16;;;;;;;6.93;2.70;;;10.10;99.90;;;;;;5095646;28;20050;-69
2023/04/27 08:55:41;;;;;;;5.82;2.70;;;10.20;99.90;;;;;;5111480;27;20055;-69
2023/04/27 08:58:07;;;;;;;4.28;2.30;;;10.10;99.90;;;;;;5076049;28;20047;-69
2023/04/27 09:00:41;;;;;;;5.85;2.60;;;10.40;99.90;;;;;;5106084;28;20084;-69
2023/04/27 09:03:27;;;;;;;5.82;2.78;;;10.50;99.90;;;;;;5111967;28;20038;-69
2023/04/27 09:05:53;;;;;;;7.93;2.78;;;10.40;99.90;;;;;;5108548;28;20177;-69
2023/04/27 09:08:18;;;;;;;7.40;2.78;;;10.50;99.90;;;;;;5079271;28;20060;-69
2023/04/27 09:10:46;;;;;;;6.82;3.00;;;10.60;99.90;;;;;;5102987;28;20136;-69
2023/04/27 09:13:12;;;;;;;9.10;2.90;;;10.60;99.90;;;;;;5076338;28;20169;-69
2023/04/27 09:15:49;;;;;;;7.50;3.15;;;10.60;99.90;;;;;;5115508;27;20115;-69
2023/04/27 09:18:20;;;;;;;5.57;2.90;;;10.60;99.90;;;;;;5075884;28;20043;-69
2023/04/27 09:20:50;;;;;;;5.97;3.05;;;10.80;99.90;;;;;;5098589;28;20047;-69
2023/04/27 09:23:29;;;;;;;7.53;2.85;;;10.90;99.90;;;;;;5089617;28;20040;-69
2023/04/27 09:26:00;;;;;;;6.90;3.35;;;11.00;99.90;;;;;;5076819;28;20043;-69
2023/04/27 09:28:26;;;;;;;5.32;2.67;;;10.90;99.90;;;;;;5076064;28;20484;-69
2023/04/27 09:30:53;;;;;;;6.40;2.70;;;11.00;99.90;;;;;;5097835;28;20058;-69
2023/04/27 09:33:33;;;;;;;9.60;3.33;;;11.00;99.90;;;;;;5106787;28;20096;-69
2023/04/27 09:36:01;;;;;;;6.15;3.03;;;11.20;99.90;;;;;;5076227;28;20036;-69
2023/04/27 09:38:29;;;;;;;6.22;2.92;;;11.30;99.90;;;;;;5081907;28;20047;-69
2023/04/27 09:40:55;;;;;;;8.23;3.10;;;11.20;99.90;;;;;;5091669;28;20050;-69
2023/04/27 09:43:22;;;;;;;6.78;3.65;;;11.20;99.60;;;;;;5100659;28;20051;-69
2023/04/27 09:45:48;;;;;;;9.13;3.33;;;11.10;99.70;;;;;;5104004;28;20123;-69
2023/04/27 09:48:15;;;;;;;7.68;3.00;;;11.10;99.60;;;;;;5111476;28;20380;-69
2023/04/27 09:50:43;;;;;;;6.63;3.13;;;11.10;99.90;;;;;;5092860;28;20442;-69
2023/04/27 09:53:12;;;;;;;8.23;3.45;;;11.20;99.90;;;;;;5104775;28;20044;-69
2023/04/27 09:55:46;;;;;;;6.80;3.10;;;11.10;99.90;;;;;;5078964;28;20044;-69
2023/04/27 09:58:51;;;;;;;11.68;3.72;;;11.20;99.90;;;;;;5104171;28;20105;-69
2023/04/27 10:01:35;;;;;;;6.93;3.15;;;11.30;99.90;;;;;;5096426;28;20127;-69
2023/04/27 10:04:38;;;;;;;7.50;3.55;;;11.50;99.80;;;;;;5104760;28;20043;-69
2023/04/27 10:07:11;;;;;;;5.93;3.10;;;11.40;99.90;;;;;;5098457;28;20048;-69
2023/04/27 10:09:49;;;;;;;7.97;3.10;;;11.50;99.90;;;;;;5101452;28;20096;-69
2023/04/27 10:12:23;;;;;;;9.82;3.38;;;11.50;99.90;;;;;;5099079;28;20571;-68
2023/04/27 10:14:49;;;;;;;7.45;3.40;;;11.60;99.90;;;;;;5098951;28;20400;-69
2023/04/27 10:17:16;;;;;;;9.27;3.67;;;11.50;99.90;;;;;;5089725;28;20134;-69
2023/04/27 10:19:55;;;;;;;7.72;3.88;;;11.40;99.90;;;;;;5093026;28;20463;-69
2023/04/27 10:22:22;;;;;;;8.23;3.70;;;11.30;99.90;;;;;;5098268;28;20047;-69
2023/04/27 10:24:50;;;;;;;8.60;3.17;;;11.20;99.90;;;;;;5093788;28;20503;-68
2023/04/27 10:27:18;;;;;;;9.77;3.60;;;11.40;99.90;;;;;;5097690;28;20081;-70
2023/04/27 10:29:45;;;;;;;8.38;3.67;;;11.50;99.90;;;;;;5094209;28;20028;-70
2023/04/27 10:32:18;;;;;;;9.18;4.38;;;11.50;99.90;;;;;;5077617;28;20043;-70
2023/04/27 10:34:46;;;;;;;7.32;3.45;;;11.50;99.90;;;;;;5077409;28;20032;-70
2023/04/27 10:37:13;;;;;;;8.05;3.38;;;11.50;99.90;;;;;;5096507;28;20032;-70
2023/04/27 10:39:43;;;;;;;7.55;3.88;;;11.60;99.90;;;;;;5099501;28;20036;-70
2023/04/27 10:42:09;;;;;;;8.45;3.88;;;11.40;99.90;;;;;;5108596;28;20043;-70
2023/04/27 10:44:35;;;;;;;6.63;3.30;;;11.40;99.90;;;;;;5089635;28;20036;-70
2023/04/27 10:47:13;;;;;;;7.25;3.70;;;11.50;99.90;;;;;;5106647;28;20467;-70
2023/04/27 10:49:39;;;;;;;7.13;3.65;;;11.40;99.90;;;;;;5078688;28;20032;-70
2023/04/27 10:52:05;;;;;;;7.88;3.65;;;11.20;99.90;;;;;;5101333;28;20032;-70
2023/04/27 10:54:31;;;;;;;6.90;3.50;;;11.30;99.90;;;;;;5097585;28;20032;-70
2023/04/27 10:57:07;;;;;;;8.80;3.67;;;11.30;99.90;;;;;;5095841;28;20048;-70
2023/04/27 10:59:34;;;;;;;7.50;3.88;;;11.30;99.90;;;;;;5107683;28;20089;-70
2023/04/27 11:02:00;;;;;;;7.85;3.78;;;11.10;99.90;;;;;;5099998;28;20039;-68
2023/04/27 11:04:37;;;;;;;7.30;3.78;;;11.20;99.90;;;;;;5077889;28;20039;-67
2023/04/27 11:07:03;;;;;;;8.57;4.25;;;11.30;99.90;;;;;;5088553;28;20491;-73
2023/04/27 11:09:29;;;;;;;8.27;3.60;;;11.20;99.90;;;;;;5099831;28;20055;-70
2023/04/27 11:11:55;;;;;;;7.82;3.88;;;11.30;96.60;;;;;;5097953;28;20035;-70
2023/04/27 11:14:20;;;;;;;10.45;3.83;;;11.30;95.90;;;;;;5098847;28;20082;-70
2023/04/27 11:16:47;;;;;;;10.13;3.90;;;11.40;93.00;;;;;;5086765;28;20399;-70
2023/04/27 11:19:13;;;;;;;9.90;3.45;;;11.40;97.60;;;;;;5101937;28;20044;-70
2023/04/27 11:21:38;;;;;;;7.82;3.92;;;11.40;99.20;;;;;;5100487;27;20032;-70
2023/04/27 11:24:05;;;;;;;8.05;3.60;;;11.50;97.80;;;;;;5106476;28;20514;-70
2023/04/27 11:26:31;;;;;;;7.35;3.55;;;11.40;99.30;;;;;;5087168;27;20051;-70
2023/04/27 11:29:04;;;;;;;8.27;4.30;;;11.30;99.50;;;;;;5089159;28;20040;-70
2023/04/27 11:31:47;;;;;;;7.47;3.63;;;11.40;98.50;;;;;;5080109;28;20040;-70
2023/04/27 11:34:21;;;;;;;7.15;3.25;;;11.40;96.20;;;;;;5087463;28;20090;-70
2023/04/27 11:37:02;;;;;;;7.93;3.75;;;11.40;94.40;;;;;;5077959;28;20044;-70
2023/04/27 11:39:31;;;;;;;7.15;3.55;;;11.20;95.70;;;;;;5097897;28;20422;-70
2023/04/27 11:42:12;;;;;;;7.72;3.40;;;11.00;97.30;;;;;;5083435;28;20126;-70
2023/04/27 11:44:39;;;;;;;8.10;3.70;;;10.90;99.00;;;;;;5097993;28;20412;-70
2023/04/27 11:47:06;;;;;;;7.70;3.72;;;11.10;98.40;;;;;;5092540;28;20085;-70
2023/04/27 11:49:31;;;;;;;9.98;3.90;;;11.00;99.70;;;;;;5103864;28;20048;-70
2023/04/27 11:51:57;;;;;;;7.78;3.63;;;10.80;99.90;;;;;;5095718;28;20104;-70
2023/04/27 11:54:28;;;;;;;9.50;3.70;;;10.70;99.90;;;;;;5105963;28;20062;-70
2023/04/27 11:57:04;;;;;;;9.88;3.90;;;10.70;98.10;;;;;;5101174;28;20051;-70
2023/04/27 11:59:30;;;;;;;7.55;3.50;;;10.70;96.70;;;;;;5104618;28;20055;-70
2023/04/27 12:01:55;;;;;;;8.70;4.55;;;10.80;99.50;;;;;;5112201;28;20036;-70
2023/04/27 12:04:21;;;;;;;8.27;3.90;;;10.70;96.80;;;;;;5094550;28;20040;-70
2023/04/27 12:06:46;;;;;;;8.00;4.10;;;10.80;99.90;;;;;;5102010;28;20031;-70
2023/04/27 12:09:12;;;;;;;7.38;3.53;;;10.90;99.90;;;;;;5101281;28;20397;-70
2023/04/27 12:11:38;;;;;;;10.82;3.60;;;10.90;99.90;;;;;;5092164;28;20039;-70
2023/04/27 12:14:03;;;;;;;7.72;3.90;;;10.90;99.90;;;;;;5093987;28;20066;-70
2023/04/27 12:16:29;;;;;;;8.95;3.78;;;11.00;99.90;;;;;;5093798;28;20372;-70
2023/04/27 12:18:55;;;;;;;9.45;3.92;;;11.00;99.90;;;;;;5093424;28;20060;-70
2023/04/27 12:21:20;;;;;;;6.55;3.70;;;11.10;99.90;;;;;;5101951;28;20039;-70
2023/04/27 12:23:46;;;;;;;9.60;4.45;;;11.20;97.90;;;;;;5103455;28;20501;-70
2023/04/27 12:26:12;;;;;;;8.07;4.20;;;11.20;99.90;;;;;;5103828;28;20105;-70
2023/04/27 12:28:38;;;;;;;7.47;3.92;;;11.20;99.90;;;;;;5087565;28;20127;-70
2023/04/27 12:31:04;;;;;;;8.57;3.75;;;11.30;99.90;;;;;;5095385;28;20138;-70
2023/04/27 12:33:31;;;;;;;8.13;3.72;;;11.30;99.90;;;;;;5113807;28;20040;-70
2023/04/27 12:35:56;;;;;;;7.38;3.88;;;11.40;99.90;;;;;;5098666;28;20062;-70
2023/04/27 12:38:22;;;;;;;11.30;5.15;;;11.40;99.90;;;;;;5093398;28;20509;-70
2023/04/27 12:40:48;;;;;;;11.07;4.80;;;11.30;99.90;;;;;;5111642;27;20086;-70
2023/04/27 12:43:14;;;;;;;7.65;3.72;;;11.30;99.90;;;;;;5091594;28;20456;-70
2023/04/27 12:45:40;;;;;;;7.90;4.15;;;11.40;99.90;;;;;;5085333;28;20040;-70
2023/04/27 12:48:05;;;;;;;10.10;4.28;;;11.40;99.90;;;;;;5107110;28;20043;-70
2023/04/27 12:50:32;;;;;;;8.07;3.92;;;11.40;99.90;;;;;;5105407;27;20497;-70
2023/04/27 12:52:57;;;;;;;9.07;4.30;;;11.50;99.90;;;;;;5101476;27;20156;-72